CDT,Max TemperatureF,Mean TemperatureF,Min TemperatureF,Max Dew PointF,MeanDew PointF,Min DewpointF,Max Humidity, Mean Humidity, Min Humidity, Max Sea Level PressureIn, Mean Sea Level PressureIn, Min Sea Level PressureIn, Max VisibilityMiles, Mean VisibilityMiles, Min VisibilityMiles, Max Wind SpeedMPH, Mean Wind SpeedMPH, Max Gust SpeedMPH,PrecipitationIn, CloudCover, Events, WindDirDegrees
2014-4-1,59,48,37,50,34,25,89,64,38,30.09,30.01,29.92,10,10,10,15,9,17,T,5,Thunderstorm,17
2014-4-2,74,63,52,63,57,40,93,78,63,29.92,29.81,29.70,10,9,2,23,13,29,0.02,7,Rain,138
2014-4-3,81,65,48,64,60,43,87,66,45,29.74,29.63,29.54,10,10,4,36,18,48,0.15,5,Rain-Thunderstorm,190
2014-4-4,49,40,31,43,32,25,80,65,49,30.18,30.01,29.76,10,10,10,29,13,39,0.00,6,,313
2014-4-5,59,43,26,30,27,22,85,57,28,30.22,30.14,30.05,10,10,9,15,5,19,0.00,0,,112
2014-4-6,59,52,44,43,35,31,86,62,38,30.07,29.95,29.81,10,10,10,17,8,21,0.04,4,Rain,138
2014-4-7,64,54,44,43,40,31,92,61,30,29.83,29.77,29.73,10,9,4,21,8,25,0.24,6,Rain,307
2014-4-8,60,50,39,41,37,31,83,62,40,30.11,29.94,29.81,10,10,10,37,12,43,T,3,Rain,320
2014-4-9,71,52,33,36,31,27,75,51,26,30.19,30.07,29.92,10,10,10,20,10,24,0.00,0,,214
2014-4-10,81,67,53,50,43,34,66,48,30,29.94,29.84,29.79,10,10,10,33,14,43,0.00,0,,216
2014-4-11,77,64,50,55,46,37,73,55,36,30.06,29.97,29.92,10,10,10,15,7,19,0.00,0,,106
2014-4-12,80,70,59,58,55,50,78,62,45,29.95,29.81,29.68,10,10,7,26,17,34,0.00,2,,166
2014-4-13,71,59,46,60,56,52,93,80,66,29.73,29.61,29.51,10,9,2,33,16,43,0.39,4,Rain-Thunderstorm,183
2014-4-14,46,38,29,53,34,21,96,78,59,30.19,29.93,29.64,10,7,2,26,16,33,T,7,Rain-Snow,325
2014-4-15,54,40,25,28,22,20,81,55,28,30.26,30.19,30.13,10,10,10,14,4,20,0.00,0,,256
2014-4-16,63,51,39,32,28,23,70,49,27,30.13,30.06,29.96,10,10,10,30,17,37,0.00,0,,158
2014-4-17,64,52,40,41,35,30,70,55,39,30.25,30.20,30.09,10,10,2,15,8,18,0.00,2,,177
2014-4-18,73,57,41,42,40,37,83,56,29,30.28,30.22,30.14,10,10,10,12,5,14,0.00,2,,86
2014-4-19,76,63,49,47,44,40,71,52,33,30.23,30.16,30.09,10,10,10,17,10,21,0.00,0,,147
2014-4-20,77,66,55,52,49,44,72,57,41,30.17,30.10,30.01,10,10,10,17,8,23,0.00,1,,181
2014-4-21,66,62,57,60,58,50,93,80,67,30.04,30.01,29.93,10,8,2,16,6,20,0.17,7,Rain,213
2014-4-22,71,59,46,57,43,35,93,61,28,30.08,30.02,29.97,10,9,4,17,8,20,0.00,0,,356
2014-4-23,77,63,48,44,39,34,71,50,29,30.03,29.92,29.80,10,10,10,24,15,29,0.00,0,,139
2014-4-24,78,64,50,62,53,41,86,66,46,29.85,29.69,29.60,10,9,2,31,17,39,0.51,5,Rain-Thunderstorm,228
2014-4-25,76,59,42,45,41,37,86,56,25,29.99,29.92,29.86,10,10,10,14,7,19,0.00,0,,218
2014-4-26,81,66,50,52,45,39,67,49,30,29.88,29.79,29.63,10,10,10,30,15,37,0.01,1,,151
2014-4-27,77,70,62,66,62,53,93,75,57,29.61,29.50,29.39,10,9,1,41,18,52,0.53,6,Rain-Thunderstorm,154
2014-4-28,68,60,51,59,48,39,87,62,37,29.56,29.46,29.37,10,10,4,31,15,39,T,4,Rain-Thunderstorm,210
2014-4-29,54,49,44,43,40,36,89,72,54,29.84,29.69,29.52,10,10,5,29,16,35,0.02,6,Rain,253
2014-4-30,54,46,38,41,37,31,89,65,41,30.01,29.94,29.85,10,10,7,21,10,30,T,7,Rain,287